Time;durP1;ratioP1;P1;durP2;ratioP2;P2;SDS_P1;SDS_P2;PMS_P1;PMS_P2;Temp;Humidity;BMP_temperature;BMP_pressure;BME280_temperature;BME280_humidity;BME280_pressure;Samples;Min_cycle;Max_cycle;Signal;HPM_P1;HPM_P2
2021/07/27 00:01:08;;;;;;;15.18;4.53;;;25.20;83.40;;;;;;5075578;28;20035;-74
2021/07/27 00:03:34;;;;;;;12.85;4.53;;;25.20;85.90;;;;;;5075779;28;20056;-74
2021/07/27 00:06:00;;;;;;;15.45;5.00;;;;;;;;;;5075779;28;20082;-74
2021/07/27 00:08:26;;;;;;;14.82;4.55;;;;;;;;;;5075457;28;20052;-74
2021/07/27 00:10:53;;;;;;;15.07;4.75;;;;;;;;;;5075539;28;20082;-73
2021/07/27 00:13:19;;;;;;;14.55;4.55;;;25.00;67.40;;;;;;5075334;28;20024;-74
2021/07/27 00:15:45;;;;;;;10.82;3.97;;;24.90;67.70;;;;;;5075255;28;20493;-74
2021/07/27 00:18:11;;;;;;;13.75;4.65;;;24.90;67.70;;;;;;5075809;28;20036;-75
2021/07/27 00:20:37;;;;;;;17.80;5.22;;;24.90;67.60;;;;;;5075503;28;20031;-74
2021/07/27 00:23:03;;;;;;;16.63;4.55;;;24.90;67.40;;;;;;5075610;28;20354;-74
2021/07/27 00:25:29;;;;;;;12.63;4.13;;;;;;;;;;5075341;28;20020;-74
2021/07/27 00:27:55;;;;;;;17.02;5.32;;;;;;;;;;5075108;28;20064;-74
2021/07/27 00:30:21;;;;;;;19.92;5.72;;;;;;;;;;5075302;28;20473;-74
2021/07/27 00:32:47;;;;;;;20.58;5.10;;;;;;;;;;5075321;28;20070;-74
2021/07/27 00:35:14;;;;;;;12.70;4.60;;;;;;;;;;5075519;28;20462;-73
2021/07/27 00:37:45;;;;;;;16.48;4.78;;;;;;;;;;5075305;28;20024;-74
2021/07/27 00:40:11;;;;;;;15.65;4.78;;;25.00;69.90;;;;;;5074773;28;20044;-74
2021/07/27 00:42:47;;;;;;;17.08;5.28;;;24.70;68.30;;;;;;5074804;28;20074;-73
2021/07/27 00:45:14;;;;;;;12.98;4.40;;;24.70;68.90;;;;;;5073746;28;20020;-74
2021/07/27 00:47:40;;;;;;;13.15;4.78;;;24.70;69.10;;;;;;5074880;28;20032;-74
2021/07/27 00:50:08;;;;;;;13.95;4.38;;;24.70;69.60;;;;;;5074747;28;20507;-75
2021/07/27 00:52:37;;;;;;;14.32;4.43;;;24.70;70.30;;;;;;5074644;28;20090;-74
2021/07/27 00:55:04;;;;;;;20.20;5.38;;;24.80;74.90;;;;;;5074485;28;20044;-74
2021/07/27 00:57:31;;;;;;;19.13;6.35;;;24.80;78.60;;;;;;5074096;28;20024;-73
2021/07/27 00:59:57;;;;;;;17.50;7.15;;;24.70;83.60;;;;;;5072093;28;20020;-74
2021/07/27 01:02:23;;;;;;;22.50;6.15;;;24.70;77.20;;;;;;5072013;28;20036;-74
2021/07/27 01:04:49;;;;;;;21.92;6.38;;;24.70;72.20;;;;;;5073011;28;20088;-75
2021/07/27 01:07:15;;;;;;;18.20;5.30;;;24.70;71.80;;;;;;5074144;28;20021;-74
2021/07/27 01:09:41;;;;;;;15.40;5.45;;;24.70;71.20;;;;;;5074100;28;20542;-73
2021/07/27 01:12:07;;;;;;;23.20;5.82;;;24.70;70.90;;;;;;5074245;28;20021;-74
2021/07/27 01:14:32;;;;;;;16.95;5.40;;;24.70;70.30;;;;;;5073668;28;20074;-74
2021/07/27 01:16:59;;;;;;;17.58;5.45;;;24.70;69.80;;;;;;5074211;28;20492;-74
2021/07/27 01:19:47;;;;;;;14.27;5.20;;;24.60;69.50;;;;;;5074050;28;20024;-74
2021/07/27 01:39:02;;;;;;;13.80;4.78;;;24.60;71.10;;;;;;5073873;28;20043;-74
2021/07/27 01:43:54;;;;;;;15.82;5.20;;;24.60;71.40;;;;;;5073759;28;20043;-74
2021/07/27 01:46:24;;;;;;;16.48;4.82;;;24.60;71.70;;;;;;5073854;28;20024;-74
2021/07/27 01:48:51;;;;;;;11.65;4.53;;;24.60;70.90;;;;;;5073557;28;20041;-73
2021/07/27 01:51:17;;;;;;;21.50;5.32;;;24.60;70.90;;;;;;5073281;28;20116;-73
2021/07/27 01:53:47;;;;;;;18.85;5.32;;;24.50;70.80;;;;;;5073450;28;20032;-73
2021/07/27 01:56:13;;;;;;;20.52;5.68;;;24.50;70.90;;;;;;5073565;28;20478;-74
2021/07/27 01:58:39;;;;;;;15.10;5.13;;;24.50;70.80;;;;;;5073405;28;20021;-74
2021/07/27 02:01:05;;;;;;;19.83;5.43;;;24.50;70.60;;;;;;5073247;28;20021;-74
2021/07/27 02:03:31;;;;;;;14.20;4.75;;;24.60;71.90;;;;;;5073470;28;20026;-73
2021/07/27 02:05:56;;;;;;;17.15;4.80;;;24.50;69.80;;;;;;5073237;28;20013;-73
2021/07/27 02:08:22;;;;;;;16.00;5.43;;;24.40;69.30;;;;;;5073153;28;20457;-73
2021/07/27 02:10:55;;;;;;;19.67;5.15;;;24.40;69.50;;;;;;5072473;28;20401;-73
2021/07/27 02:13:27;;;;;;;15.82;4.65;;;24.40;69.50;;;;;;5071641;28;20074;-73
2021/07/27 02:15:52;;;;;;;19.85;5.28;;;24.40;69.50;;;;;;5072419;28;20086;-73
2021/07/27 02:18:18;;;;;;;14.68;4.57;;;24.30;69.40;;;;;;5073335;28;20022;-73
2021/07/27 02:20:44;;;;;;;16.95;5.00;;;24.30;69.30;;;;;;5073324;28;20107;-73
2021/07/27 02:23:10;;;;;;;12.75;5.38;;;24.30;69.40;;;;;;5073217;28;20028;-73
2021/07/27 02:25:36;;;;;;;16.30;4.78;;;24.30;69.70;;;;;;5073162;28;20024;-73
2021/07/27 02:28:02;;;;;;;18.15;4.80;;;24.30;70.10;;;;;;5072992;28;20459;-73
2021/07/27 02:30:33;;;;;;;18.83;4.72;;;24.30;70.60;;;;;;5073050;28;20086;-73
2021/07/27 02:32:58;;;;;;;15.65;4.68;;;24.30;69.80;;;;;;5073120;28;20025;-73
2021/07/27 02:35:24;;;;;;;19.88;5.25;;;24.30;69.80;;;;;;5072929;28;20035;-73
2021/07/27 02:37:50;;;;;;;17.70;4.93;;;24.30;69.70;;;;;;5073096;28;20043;-73
2021/07/27 02:40:16;;;;;;;17.13;5.15;;;24.30;69.80;;;;;;5072848;28;20021;-73
2021/07/27 02:42:41;;;;;;;17.70;4.60;;;24.30;69.80;;;;;;5072628;28;20028;-73
2021/07/27 02:45:08;;;;;;;17.50;5.72;;;24.30;69.80;;;;;;5072506;28;20489;-72
2021/07/27 02:47:34;;;;;;;20.02;6.60;;;24.30;69.70;;;;;;5071237;28;20038;-73
2021/07/27 02:50:00;;;;;;;15.05;5.38;;;24.20;69.90;;;;;;5072853;28;20044;-73
2021/07/27 02:52:26;;;;;;;15.20;5.15;;;24.20;70.10;;;;;;5072477;28;20382;-73
2021/07/27 02:54:51;;;;;;;17.25;5.45;;;24.20;70.00;;;;;;5071608;28;20020;-73
2021/07/27 02:57:17;;;;;;;15.27;5.20;;;24.20;70.10;;;;;;5072974;28;20017;-73
2021/07/27 02:59:43;;;;;;;15.85;5.97;;;24.20;70.20;;;;;;5072629;28;20029;-73
2021/07/27 03:02:08;;;;;;;16.45;5.60;;;24.20;70.30;;;;;;5072589;28;20067;-73
2021/07/27 03:04:34;;;;;;;12.93;5.28;;;24.20;70.50;;;;;;5072728;28;20055;-73
2021/07/27 03:07:00;;;;;;;17.00;5.43;;;24.20;70.70;;;;;;5072921;28;20536;-73
2021/07/27 03:09:30;;;;;;;19.38;5.40;;;24.20;71.00;;;;;;5075768;28;20088;-73
2021/07/27 03:11:56;;;;;;;15.80;5.05;;;24.20;71.30;;;;;;5077036;28;20012;-73
2021/07/27 03:14:25;;;;;;;16.77;5.20;;;24.30;72.00;;;;;;5076488;28;20082;-73
2021/07/27 03:16:55;;;;;;;12.70;4.63;;;24.20;72.00;;;;;;5076731;28;20029;-73
2021/07/27 03:19:21;;;;;;;10.93;4.70;;;24.20;72.20;;;;;;5076751;28;20033;-73
2021/07/27 03:21:46;;;;;;;13.50;4.90;;;24.20;71.60;;;;;;5076715;28;20050;-72
2021/07/27 03:24:12;;;;;;;23.10;5.97;;;24.30;71.20;;;;;;5076576;28;20028;-72
2021/07/27 03:26:38;;;;;;;20.98;4.50;;;24.20;69.90;;;;;;5076112;28;20397;-72
2021/07/27 03:29:06;;;;;;;16.42;4.82;;;24.20;70.30;;;;;;5076334;28;20032;-73
2021/07/27 03:31:32;;;;;;;13.32;4.63;;;24.20;72.60;;;;;;5076562;28;20012;-73
2021/07/27 03:33:58;;;;;;;23.27;5.82;;;24.20;77.10;;;;;;5076653;28;20031;-73
2021/07/27 03:36:24;;;;;;;15.00;5.15;;;24.20;90.10;;;;;;5076474;28;20045;-74
2021/07/27 03:38:51;;;;;;;16.23;5.63;;;24.20;80.50;;;;;;5076356;28;20082;-73
2021/07/27 03:41:16;;;;;;;18.48;5.97;;;24.20;80.20;;;;;;5076356;28;20082;-73
2021/07/27 03:43:42;;;;;;;18.73;5.00;;;;;;;;;;5076188;28;20132;-73
2021/07/27 03:46:08;;;;;;;20.05;5.30;;;24.20;90.50;;;;;;5075007;28;20028;-73
2021/07/27 03:48:34;;;;;;;15.43;5.05;;;24.20;80.40;;;;;;5074779;28;20074;-74
2021/07/27 03:51:00;;;;;;;14.80;4.82;;;24.10;74.60;;;;;;5076017;28;20078;-73
2021/07/27 03:53:26;;;;;;;16.73;4.93;;;24.10;70.70;;;;;;5076151;28;20519;-73
2021/07/27 03:55:52;;;;;;;17.27;4.90;;;24.10;72.60;;;;;;5075651;28;20089;-74
2021/07/27 03:58:19;;;;;;;14.68;4.85;;;24.10;84.60;;;;;;5076000;28;20040;-72
2021/07/27 04:00:45;;;;;;;16.48;5.10;;;24.10;77.50;;;;;;5075786;28;20040;-73
2021/07/27 04:03:14;;;;;;;17.60;5.03;;;24.00;71.20;;;;;;5075750;28;20082;-73
2021/07/27 04:05:46;;;;;;;14.05;5.30;;;24.10;75.10;;;;;;5075888;28;20017;-76
2021/07/27 04:08:14;;;;;;;14.00;4.90;;;24.10;80.40;;;;;;5075654;28;20098;-72
2021/07/27 04:10:40;;;;;;;15.15;5.20;;;24.10;85.00;;;;;;5075569;28;20448;-73
2021/07/27 04:13:06;;;;;;;18.02;5.95;;;24.10;78.10;;;;;;5075503;28;20025;-73
2021/07/27 04:15:31;;;;;;;21.88;5.68;;;24.10;75.80;;;;;;5075819;28;20139;-74
2021/07/27 04:17:57;;;;;;;16.95;5.95;;;24.10;76.40;;;;;;5075547;28;20464;-74
2021/07/27 04:20:23;;;;;;;15.52;5.28;;;24.00;76.30;;;;;;5075560;28;20027;-73
2021/07/27 04:22:49;;;;;;;14.30;5.53;;;24.10;76.70;;;;;;5075488;28;20417;-73
2021/07/27 04:25:15;;;;;;;19.88;5.13;;;24.10;77.70;;;;;;5075241;28;20027;-73
2021/07/27 04:27:40;;;;;;;16.50;5.25;;;24.10;73.30;;;;;;5075112;28;20048;-73
2021/07/27 04:30:07;;;;;;;23.88;4.97;;;24.10;72.10;;;;;;5075638;28;20059;-72
2021/07/27 04:32:33;;;;;;;18.20;5.65;;;24.10;74.80;;;;;;5075286;28;20021;-73
2021/07/27 04:34:58;;;;;;;19.27;5.30;;;24.10;78.60;;;;;;5073998;28;20037;-74
2021/07/27 04:37:24;;;;;;;20.45;6.28;;;24.10;77.40;;;;;;5075119;28;20103;-73
2021/07/27 04:39:53;;;;;;;17.80;4.75;;;24.10;74.30;;;;;;5074710;28;20078;-73
2021/07/27 04:42:19;;;;;;;17.55;4.93;;;24.10;73.50;;;;;;5072895;28;20412;-73
2021/07/27 04:44:44;;;;;;;17.90;5.40;;;24.10;74.60;;;;;;5075073;28;20079;-73
2021/07/27 04:47:10;;;;;;;14.05;5.25;;;24.10;75.70;;;;;;5075199;28;20028;-74
2021/07/27 04:49:36;;;;;;;18.83;5.20;;;24.00;76.40;;;;;;5075237;28;20025;-74
2021/07/27 04:52:02;;;;;;;18.02;5.00;;;24.00;76.60;;;;;;5075068;28;20065;-74
2021/07/27 04:54:29;;;;;;;22.67;5.30;;;24.00;75.90;;;;;;5075030;28;20032;-73
2021/07/27 04:56:55;;;;;;;18.27;5.45;;;24.10;75.60;;;;;;5074694;28;20048;-74
2021/07/27 04:59:21;;;;;;;16.27;4.65;;;24.10;75.10;;;;;;5074787;28;20059;-70
2021/07/27 05:01:46;;;;;;;21.88;5.25;;;24.00;74.10;;;;;;5074747;28;20044;-70
2021/07/27 05:04:12;;;;;;;17.02;5.18;;;24.10;74.10;;;;;;5074569;28;20020;-69
2021/07/27 05:06:38;;;;;;;19.85;6.00;;;24.10;74.10;;;;;;5074525;28;20362;-69
2021/07/27 05:09:04;;;;;;;16.55;5.55;;;24.10;73.80;;;;;;5074612;28;20119;-69
2021/07/27 05:11:30;;;;;;;16.10;5.68;;;24.10;73.60;;;;;;5074390;28;20012;-70
2021/07/27 05:13:56;;;;;;;14.32;5.57;;;24.10;73.50;;;;;;5074551;28;20023;-70
2021/07/27 05:16:22;;;;;;;20.50;5.50;;;24.10;73.70;;;;;;5074404;28;20364;-69
2021/07/27 05:18:51;;;;;;;21.08;6.13;;;24.10;73.80;;;;;;5073299;28;20024;-70
2021/07/27 05:21:20;;;;;;;23.35;5.93;;;24.20;74.20;;;;;;5073742;28;20035;-69
2021/07/27 05:23:46;;;;;;;12.50;4.93;;;24.20;74.60;;;;;;5074200;28;20033;-70
2021/07/27 05:26:11;;;;;;;15.10;6.05;;;24.20;74.40;;;;;;5074213;28;20055;-69
2021/07/27 05:28:37;;;;;;;17.80;5.15;;;24.20;74.40;;;;;;5074150;28;20103;-70
2021/07/27 05:31:06;;;;;;;19.13;5.75;;;24.30;74.50;;;;;;5073532;28;20040;-69
2021/07/27 05:33:32;;;;;;;19.02;6.68;;;24.30;74.40;;;;;;5074072;28;20029;-69
2021/07/27 05:35:58;;;;;;;21.85;6.40;;;24.30;74.20;;;;;;5074136;28;20100;-69
2021/07/27 05:38:24;;;;;;;16.38;6.25;;;24.30;73.90;;;;;;5073739;28;20044;-68
2021/07/27 05:40:50;;;;;;;15.98;6.03;;;24.30;73.70;;;;;;5072441;28;20041;-67
2021/07/27 05:43:16;;;;;;;18.30;6.63;;;24.40;73.70;;;;;;5070890;28;20100;-69
2021/07/27 05:45:42;;;;;;;18.52;6.40;;;24.40;73.70;;;;;;5071681;28;20116;-69
2021/07/27 05:48:07;;;;;;;16.30;6.18;;;24.50;74.00;;;;;;5072786;28;20062;-70
2021/07/27 05:50:33;;;;;;;21.20;6.50;;;24.50;89.50;;;;;;5071577;28;20500;-70
2021/07/27 05:52:59;;;;;;;23.25;7.32;;;24.50;72.80;;;;;;5069001;28;20027;-68
2021/07/27 05:55:24;;;;;;;18.40;6.50;;;24.50;72.50;;;;;;5069705;28;20037;-69
2021/07/27 05:57:50;;;;;;;18.80;7.35;;;24.60;72.30;;;;;;5070304;28;20059;-70
2021/07/27 06:00:16;;;;;;;19.60;6.60;;;24.60;72.30;;;;;;5072528;28;20017;-69
2021/07/27 06:02:42;;;;;;;23.83;6.88;;;24.60;72.10;;;;;;5073555;28;20384;-70
2021/07/27 06:05:08;;;;;;;15.68;6.45;;;24.70;71.90;;;;;;5073266;28;20021;-69
2021/07/27 06:07:34;;;;;;;20.15;6.80;;;24.80;72.60;;;;;;5073033;28;20024;-70
2021/07/27 06:09:59;;;;;;;18.83;6.57;;;24.80;72.80;;;;;;5073202;28;20078;-69
2021/07/27 06:12:25;;;;;;;26.67;7.50;;;24.80;71.10;;;;;;5073680;28;20103;-69
2021/07/27 06:14:51;;;;;;;23.55;7.78;;;24.80;71.50;;;;;;5073247;28;20029;-69
2021/07/27 06:17:16;;;;;;;20.13;6.45;;;24.90;71.50;;;;;;5072976;28;20279;-68
2021/07/27 06:19:42;;;;;;;18.65;7.57;;;25.00;71.30;;;;;;5070310;28;20039;-69
2021/07/27 06:22:08;;;;;;;23.42;7.18;;;25.00;71.20;;;;;;5070342;28;20032;-68
2021/07/27 06:24:34;;;;;;;21.48;7.88;;;25.00;71.40;;;;;;5072510;28;20025;-68
2021/07/27 06:27:00;;;;;;;23.42;7.65;;;25.00;71.40;;;;;;5073260;28;20043;-68
2021/07/27 06:29:25;;;;;;;23.25;8.07;;;25.10;71.50;;;;;;5073076;28;20044;-69
2021/07/27 06:31:51;;;;;;;15.68;7.22;;;25.10;71.80;;;;;;5073499;28;20031;-69
2021/07/27 06:34:17;;;;;;;26.33;8.60;;;25.20;71.60;;;;;;5072890;28;20025;-69
2021/07/27 06:36:42;;;;;;;25.63;8.95;;;25.20;71.50;;;;;;5073100;28;20024;-70
2021/07/27 06:39:08;;;;;;;25.80;8.80;;;25.20;71.60;;;;;;5071712;28;20036;-68
2021/07/27 06:41:34;;;;;;;20.55;7.93;;;25.30;71.90;;;;;;5073128;28;20377;-68
2021/07/27 06:43:59;;;;;;;24.60;7.85;;;25.30;71.90;;;;;;5072370;28;20085;-68
2021/07/27 06:46:28;;;;;;;24.10;8.00;;;25.20;72.20;;;;;;5072912;28;20021;-68
2021/07/27 06:48:54;;;;;;;21.42;7.95;;;25.20;72.50;;;;;;5072985;28;20115;-68
2021/07/27 06:51:20;;;;;;;26.70;8.38;;;25.20;72.70;;;;;;5073002;28;20108;-68
2021/07/27 06:53:46;;;;;;;32.03;8.90;;;25.20;72.80;;;;;;5072905;28;20017;-68
2021/07/27 06:56:12;;;;;;;27.65;8.50;;;25.20;72.90;;;;;;5073154;28;20051;-68
2021/07/27 06:58:39;;;;;;;19.20;8.00;;;25.30;73.50;;;;;;5073058;28;20407;-68
2021/07/27 07:01:10;;;;;;;22.50;9.32;;;25.30;73.70;;;;;;5073113;28;20028;-68
2021/07/27 07:03:39;;;;;;;25.65;9.32;;;25.30;73.90;;;;;;5072877;28;20025;-69
2021/07/27 07:06:06;;;;;;;25.95;8.93;;;25.30;73.80;;;;;;5072697;28;20032;-69
2021/07/27 07:08:31;;;;;;;18.50;8.23;;;25.30;73.80;;;;;;5072905;28;20028;-66
2021/07/27 07:10:59;;;;;;;24.88;8.50;;;25.30;74.00;;;;;;5072753;28;20384;-69
2021/07/27 07:13:25;;;;;;;28.10;8.63;;;25.30;74.10;;;;;;5072910;28;20027;-68
2021/07/27 07:15:53;;;;;;;24.23;7.85;;;25.30;74.10;;;;;;5072912;28;20078;-69
2021/07/27 07:18:19;;;;;;;47.92;9.65;;;25.30;74.20;;;;;;5072573;28;20025;-68
2021/07/27 07:20:45;;;;;;;24.60;7.40;;;25.30;74.50;;;;;;5072849;28;20044;-68
2021/07/27 07:23:10;;;;;;;22.95;6.80;;;25.30;74.40;;;;;;5071648;28;20063;-68
2021/07/27 07:25:39;;;;;;;20.13;6.40;;;25.30;74.30;;;;;;5071094;28;20036;-68
2021/07/27 07:28:05;;;;;;;24.60;7.05;;;25.30;74.20;;;;;;5072551;28;20484;-68
2021/07/27 07:30:31;;;;;;;27.42;7.63;;;25.30;74.20;;;;;;5072689;28;20560;-68
2021/07/27 07:32:57;;;;;;;22.77;8.02;;;25.30;74.30;;;;;;5072620;28;20013;-71
2021/07/27 07:35:24;;;;;;;24.40;7.78;;;25.30;74.50;;;;;;5072685;28;20435;-72
2021/07/27 07:37:50;;;;;;;25.17;6.90;;;25.30;74.70;;;;;;5072721;28;20040;-71
2021/07/27 07:40:15;;;;;;;25.05;7.60;;;25.30;75.00;;;;;;5072631;28;20074;-71
2021/07/27 07:42:41;;;;;;;25.38;8.32;;;25.30;75.20;;;;;;5072273;28;20037;-70
2021/07/27 07:45:07;;;;;;;18.73;7.93;;;25.30;75.30;;;;;;5072436;28;20024;-69
2021/07/27 07:47:33;;;;;;;25.52;8.68;;;25.20;75.10;;;;;;5072529;28;20473;-70
2021/07/27 07:50:00;;;;;;;21.30;8.68;;;25.20;75.30;;;;;;5072236;28;20071;-71
2021/07/27 07:52:26;;;;;;;21.17;8.90;;;25.20;75.50;;;;;;5072140;28;20021;-70
2021/07/27 07:54:52;;;;;;;18.25;9.32;;;25.20;76.00;;;;;;5074605;28;20032;-70
2021/07/27 07:57:18;;;;;;;24.60;10.45;;;25.20;76.80;;;;;;5076078;28;20025;-71
2021/07/27 07:59:44;;;;;;;21.55;9.82;;;25.20;77.50;;;;;;5076252;28;20031;-70
2021/07/27 08:02:10;;;;;;;25.30;9.75;;;25.10;78.10;;;;;;5076032;28;20034;-70
2021/07/27 08:04:36;;;;;;;15.55;9.55;;;25.10;78.60;;;;;;5076139;28;20024;-71
2021/07/27 08:07:01;;;;;;;29.85;10.43;;;25.10;79.10;;;;;;5075976;28;20087;-70
2021/07/27 08:09:27;;;;;;;23.67;10.80;;;25.10;79.50;;;;;;5075926;28;20044;-71
2021/07/27 08:11:53;;;;;;;25.25;9.63;;;25.10;79.70;;;;;;5076077;28;20040;-71
2021/07/27 08:14:20;;;;;;;27.58;11.63;;;25.10;80.00;;;;;;5075632;28;20530;-70
2021/07/27 08:16:49;;;;;;;58.60;14.15;;;25.00;80.40;;;;;;5075967;28;20070;-70
2021/07/27 08:19:15;;;;;;;91.70;16.65;;;25.10;80.60;;;;;;5076033;28;20021;-70
2021/07/27 08:21:41;;;;;;;46.38;12.68;;;25.10;80.90;;;;;;5075830;28;20021;-70
2021/07/27 08:24:07;;;;;;;31.98;11.07;;;25.10;81.10;;;;;;5075698;28;20064;-70
2021/07/27 08:26:32;;;;;;;36.92;11.02;;;25.10;81.10;;;;;;5075226;28;20055;-70
2021/07/27 08:28:58;;;;;;;31.15;10.50;;;25.20;81.20;;;;;;5075483;28;20036;-71
2021/07/27 08:31:24;;;;;;;32.80;11.40;;;25.30;81.10;;;;;;5075377;28;20024;-70
2021/07/27 08:33:50;;;;;;;25.38;11.50;;;25.30;81.20;;;;;;5075589;28;20476;-70
2021/07/27 08:36:15;;;;;;;24.60;11.73;;;25.40;81.30;;;;;;5075539;28;20039;-69
2021/07/27 08:38:41;;;;;;;304.80;42.42;;;25.40;81.10;;;;;;5075493;28;20021;-70
2021/07/27 08:41:08;;;;;;;27.25;10.90;;;25.40;81.50;;;;;;5075453;28;20069;-69
2021/07/27 08:43:34;;;;;;;78.68;15.45;;;25.50;81.20;;;;;;5075123;28;20033;-70
2021/07/27 08:46:00;;;;;;;23.67;10.27;;;25.50;81.00;;;;;;5074419;28;20036;-71
2021/07/27 08:48:26;;;;;;;24.90;10.35;;;25.50;80.40;;;;;;5075092;28;20241;-70
2021/07/27 08:50:52;;;;;;;15.20;8.50;;;25.50;79.60;;;;;;5075186;28;20029;-70
2021/07/27 08:53:18;;;;;;;39.38;11.50;;;25.50;79.80;;;;;;5075226;28;20025;-69
2021/07/27 08:55:44;;;;;;;21.88;9.57;;;25.50;79.70;;;;;;5075115;28;20021;-71
2021/07/27 08:58:10;;;;;;;18.33;9.43;;;25.50;79.50;;;;;;5075116;28;20031;-69
2021/07/27 09:00:35;;;;;;;21.10;9.52;;;25.50;79.30;;;;;;5074994;28;20028;-70
2021/07/27 09:03:09;;;;;;;22.85;9.50;;;25.40;79.10;;;;;;5075301;28;20465;-69
2021/07/27 09:05:35;;;;;;;27.17;9.27;;;25.40;79.60;;;;;;5072581;28;20388;-70
2021/07/27 09:08:04;;;;;;;16.20;8.43;;;25.40;79.20;;;;;;5074873;28;20016;-69
2021/07/27 09:10:33;;;;;;;19.73;8.68;;;25.40;79.30;;;;;;5074863;28;20472;-70
2021/07/27 09:13:02;;;;;;;23.48;9.45;;;25.40;79.40;;;;;;5075017;28;20104;-70
2021/07/27 09:15:30;;;;;;;22.42;9.63;;;25.30;80.00;;;;;;5074502;28;20719;-70
2021/07/27 09:18:02;;;;;;;19.70;9.13;;;25.30;80.20;;;;;;5074470;28;20017;-69
2021/07/27 09:20:33;;;;;;;26.35;10.18;;;25.20;80.50;;;;;;5074276;28;20020;-69
2021/07/27 09:23:00;;;;;;;25.52;8.60;;;25.10;80.80;;;;;;5074641;28;20075;-69
2021/07/27 09:25:29;;;;;;;30.77;9.70;;;25.20;80.70;;;;;;5074454;28;20013;-69
2021/07/27 09:28:08;;;;;;;24.27;9.60;;;25.10;80.70;;;;;;5074220;28;20084;-69
2021/07/27 09:30:34;;;;;;;23.27;9.60;;;25.10;80.80;;;;;;5073787;28;20035;-70
2021/07/27 09:33:00;;;;;;;20.42;8.68;;;25.10;81.20;;;;;;5072250;28;20024;-69
2021/07/27 09:35:28;;;;;;;24.25;8.90;;;25.00;81.20;;;;;;5074300;28;20366;-69
2021/07/27 09:38:18;;;;;;;24.13;8.85;;;25.00;80.90;;;;;;5074299;28;20024;-70
2021/07/27 09:40:48;;;;;;;15.95;8.20;;;25.00;81.30;;;;;;5074255;28;20028;-69
2021/07/27 09:43:18;;;;;;;17.35;8.27;;;25.00;81.40;;;;;;5074329;28;20029;-69
2021/07/27 09:45:52;;;;;;;17.67;8.07;;;25.00;81.70;;;;;;5074055;28;20029;-70
2021/07/27 09:48:20;;;;;;;17.65;7.63;;;25.00;82.10;;;;;;5073846;28;20291;-69
2021/07/27 09:50:47;;;;;;;19.00;7.22;;;25.00;82.30;;;;;;5074013;28;20069;-70
2021/07/27 09:53:14;;;;;;;17.30;7.65;;;25.00;82.20;;;;;;5074026;28;20021;-70
2021/07/27 09:55:41;;;;;;;17.23;6.00;;;25.00;81.80;;;;;;5073888;28;20078;-70
2021/07/27 09:58:07;;;;;;;18.75;4.95;;;25.00;81.20;;;;;;5074148;28;20036;-69
2021/07/27 10:00:58;;;;;;;15.82;4.65;;;25.00;80.20;;;;;;5073810;28;20476;-70
2021/07/27 10:03:32;;;;;;;15.77;5.05;;;25.00;80.00;;;;;;5073535;28;20032;-70
2021/07/27 10:06:02;;;;;;;11.27;4.68;;;25.10;80.00;;;;;;5073782;28;20747;-70
2021/07/27 10:08:33;;;;;;;13.38;4.93;;;25.10;79.90;;;;;;5073598;28;20417;-69
2021/07/27 10:11:38;;;;;;;12.40;4.95;;;25.10;79.80;;;;;;5073829;28;20544;-69
2021/07/27 10:14:11;;;;;;;13.45;5.00;;;25.10;79.80;;;;;;5061096;28;20043;-70
2021/07/27 10:16:38;;;;;;;15.52;5.10;;;25.10;79.60;;;;;;5073346;28;20038;-69
2021/07/27 10:19:18;;;;;;;12.60;4.70;;;25.10;79.60;;;;;;5073613;28;20035;-69
2021/07/27 10:21:45;;;;;;;14.88;5.55;;;25.10;79.40;;;;;;5073231;28;20050;-69
2021/07/27 10:24:14;;;;;;;15.82;4.95;;;25.10;79.30;;;;;;5073136;28;20020;-70
2021/07/27 10:26:41;;;;;;;19.10;5.53;;;25.20;79.30;;;;;;5073462;28;20049;-70
2021/07/27 10:29:06;;;;;;;11.40;5.30;;;25.20;79.40;;;;;;5073059;28;20483;-70
2021/07/27 10:31:50;;;;;;;13.48;5.72;;;25.20;79.60;;;;;;5073429;28;20048;-70
2021/07/27 10:34:16;;;;;;;16.23;6.25;;;25.20;80.10;;;;;;5073072;28;20048;-70
2021/07/27 10:36:47;;;;;;;15.45;6.05;;;25.20;80.20;;;;;;5073366;28;20044;-70
2021/07/27 10:39:15;;;;;;;19.75;6.15;;;25.20;80.40;;;;;;5072999;28;20406;-70
2021/07/27 10:41:43;;;;;;;20.27;7.10;;;25.20;80.50;;;;;;5072972;28;20021;-70
2021/07/27 10:44:14;;;;;;;12.32;5.93;;;25.30;80.40;;;;;;5070134;28;20033;-69
2021/07/27 10:46:45;;;;;;;15.27;6.05;;;25.40;80.30;;;;;;5070529;28;20388;-70
2021/07/27 10:49:22;;;;;;;13.60;5.97;;;25.50;80.00;;;;;;5071073;28;20370;-69
2021/07/27 10:51:50;;;;;;;12.43;6.07;;;25.50;80.10;;;;;;5072131;28;20021;-70
2021/07/27 10:54:19;;;;;;;15.30;5.38;;;25.60;79.50;;;;;;5070320;28;20028;-69
2021/07/27 10:57:02;;;;;;;14.80;5.75;;;25.60;79.20;;;;;;5070278;28;20037;-70
2021/07/27 10:59:31;;;;;;;17.77;5.40;;;25.70;78.50;;;;;;5073075;28;20516;-70
2021/07/27 11:01:58;;;;;;;16.15;5.65;;;25.80;78.20;;;;;;5072739;28;20028;-69
2021/07/27 11:04:28;;;;;;;13.52;5.00;;;25.80;78.00;;;;;;5072948;28;20036;-70
2021/07/27 11:06:54;;;;;;;10.30;4.35;;;;;;;;;;5072914;28;20610;-69
2021/07/27 11:09:20;;;;;;;11.23;5.10;;;26.00;76.70;;;;;;5061656;28;20036;-70
2021/07/27 11:11:47;;;;;;;14.45;5.45;;;;;;;;;;5054947;28;20021;-70
2021/07/27 11:14:20;;;;;;;16.23;5.00;;;26.20;75.80;;;;;;5062742;28;20025;-70
2021/07/27 11:16:46;;;;;;;14.60;4.95;;;26.20;76.20;;;;;;5062485;28;20412;-70
2021/07/27 11:19:24;;;;;;;14.43;4.30;;;26.30;75.40;;;;;;5063820;28;20031;-70
2021/07/27 11:21:50;;;;;;;10.32;3.80;;;26.50;75.30;;;;;;5071361;28;20128;-70
2021/07/27 11:24:17;;;;;;;13.88;3.72;;;26.50;73.00;;;;;;5072712;28;20020;-70
2021/07/27 11:26:50;;;;;;;16.00;4.38;;;26.60;71.30;;;;;;5072575;28;20048;-70
2021/07/27 11:29:17;;;;;;;15.55;4.07;;;26.60;70.80;;;;;;5073835;28;20025;-70
2021/07/27 11:31:52;;;;;;;15.05;3.80;;;26.60;70.10;;;;;;5076620;28;20035;-71
2021/07/27 11:34:28;;;;;;;13.02;4.28;;;26.70;69.60;;;;;;5076347;28;20016;-70
2021/07/27 11:36:54;;;;;;;13.75;4.65;;;26.80;69.10;;;;;;5076602;28;20062;-70
2021/07/27 11:39:20;;;;;;;14.07;4.50;;;26.80;68.50;;;;;;5076737;28;20021;-70
2021/07/27 11:42:00;;;;;;;17.02;3.83;;;26.90;67.90;;;;;;5076519;28;20035;-70
2021/07/27 11:44:26;;;;;;;12.63;4.03;;;26.90;66.90;;;;;;5076465;28;20070;-70
2021/07/27 11:46:52;;;;;;;12.38;3.88;;;27.00;66.40;;;;;;5076033;28;20033;-70
2021/07/27 11:49:18;;;;;;;15.20;3.95;;;27.10;66.40;;;;;;5075865;28;20116;-71
2021/07/27 11:51:44;;;;;;;14.27;4.00;;;27.20;66.10;;;;;;5075899;28;20024;-70
2021/07/27 11:54:10;;;;;;;15.55;4.40;;;27.20;65.70;;;;;;5076218;28;20069;-71
2021/07/27 11:56:45;;;;;;;15.52;4.50;;;27.30;65.30;;;;;;5076169;28;20040;-70
2021/07/27 11:59:11;;;;;;;17.38;3.80;;;27.40;64.90;;;;;;5076361;28;20053;-71
2021/07/27 12:01:42;;;;;;;16.23;4.10;;;27.40;63.80;;;;;;5076113;28;20025;-71
2021/07/27 12:04:08;;;;;;;15.30;3.67;;;27.50;63.40;;;;;;5076111;28;20028;-70
2021/07/27 12:06:54;;;;;;;11.50;3.80;;;27.50;63.00;;;;;;5075941;28;20017;-71
2021/07/27 12:09:22;;;;;;;13.27;4.30;;;27.60;62.90;;;;;;5075796;28;20154;-71
2021/07/27 12:11:48;;;;;;;15.80;4.13;;;27.60;62.90;;;;;;5075673;28;20016;-72
2021/07/27 12:14:13;;;;;;;20.13;4.18;;;27.70;60.60;;;;;;5075807;28;20032;-71
2021/07/27 12:16:39;;;;;;;16.58;3.78;;;27.70;60.30;;;;;;5075874;28;20020;-71
2021/07/27 12:19:05;;;;;;;13.45;3.80;;;27.80;60.10;;;;;;5075638;28;20047;-72
2021/07/27 12:21:30;;;;;;;18.90;4.15;;;27.80;59.10;;;;;;5075571;28;20500;-71
2021/07/27 12:23:56;;;;;;;15.32;3.90;;;27.80;58.50;;;;;;5075564;28;20028;-72
2021/07/27 12:26:22;;;;;;;18.48;4.47;;;27.80;58.30;;;;;;5075381;28;20467;-71
2021/07/27 12:28:47;;;;;;;20.48;4.95;;;27.80;59.70;;;;;;5075254;28;20032;-72
2021/07/27 12:31:13;;;;;;;15.20;4.75;;;27.80;58.60;;;;;;5075451;28;20104;-71
2021/07/27 12:33:39;;;;;;;16.88;3.95;;;27.80;60.20;;;;;;5075151;28;20036;-71
2021/07/27 12:36:05;;;;;;;16.42;4.30;;;27.80;61.40;;;;;;5075318;28;20461;-71
2021/07/27 12:38:33;;;;;;;16.40;4.10;;;27.90;61.50;;;;;;5075092;28;20074;-71
2021/07/27 12:40:58;;;;;;;16.63;4.25;;;27.90;61.70;;;;;;5074026;28;20013;-71
2021/07/27 12:43:25;;;;;;;19.00;4.30;;;28.00;63.90;;;;;;5075564;28;20051;-71
2021/07/27 12:45:51;;;;;;;20.67;4.45;;;28.00;73.00;;;;;;5075060;28;20077;-78
2021/07/27 12:48:16;;;;;;;11.00;4.10;;;28.00;74.20;;;;;;5075223;28;20427;-71
2021/07/27 12:50:42;;;;;;;24.90;4.15;;;28.10;74.70;;;;;;5075162;28;20025;-71
2021/07/27 12:53:08;;;;;;;12.55;4.03;;;28.20;73.80;;;;;;5075046;28;20025;-72
2021/07/27 12:55:33;;;;;;;18.25;5.03;;;28.00;58.40;;;;;;5074231;28;20100;-71
2021/07/27 12:58:03;;;;;;;17.08;4.38;;;28.10;58.80;;;;;;5073925;28;20032;-72
2021/07/27 13:00:30;;;;;;;14.10;4.35;;;28.10;58.90;;;;;;5072823;28;20031;-71